Time;durP1;ratioP1;P1;durP2;ratioP2;P2;SDS_P1;SDS_P2;PMS_P1;PMS_P2;Temp;Humidity;BMP_temperature;BMP_pressure;BME280_temperature;BME280_humidity;BME280_pressure;Samples;Min_cycle;Max_cycle;Signal;HPM_P1;HPM_P2
2023/01/08 00:00:11;;;;;;;28.70;17.70;;;3.80;99.90;;;;;;10198258;29;20225;-79
2023/01/08 00:05:33;;;;;;;25.33;16.90;;;3.80;99.90;;;;;;10199397;29;20228;-79
2023/01/08 00:10:54;;;;;;;31.07;17.47;;;3.70;99.90;;;;;;10184777;29;20456;-82
2023/01/08 00:16:17;;;;;;;26.90;15.97;;;3.70;99.90;;;;;;10197975;29;20242;-79
2023/01/08 00:21:38;;;;;;;27.30;16.23;;;3.80;99.90;;;;;;10213508;29;20200;-81
2023/01/08 00:26:59;;;;;;;26.60;15.97;;;3.80;99.90;;;;;;10198084;29;20249;-80
2023/01/08 00:32:20;;;;;;;31.83;17.70;;;3.80;99.90;;;;;;10200981;29;20203;-82
2023/01/08 00:37:42;;;;;;;27.17;16.20;;;3.80;99.90;;;;;;10215300;29;20258;-82
2023/01/08 00:43:03;;;;;;;29.47;17.63;;;3.80;99.90;;;;;;10202953;29;20265;-83
2023/01/08 00:48:24;;;;;;;32.30;18.97;;;3.90;99.90;;;;;;10210481;29;20256;-79
2023/01/08 00:53:46;;;;;;;30.10;17.77;;;3.90;99.90;;;;;;10183247;29;20208;-83
2023/01/08 00:59:07;;;;;;;32.70;19.33;;;3.90;99.90;;;;;;10183245;29;20237;-82
2023/01/08 01:04:30;;;;;;;32.10;18.50;;;4.00;99.90;;;;;;10198788;29;20287;-82
2023/01/08 01:09:51;;;;;;;33.73;20.53;;;4.00;99.90;;;;;;10196638;29;20230;-82
2023/01/08 01:15:15;;;;;;;30.50;18.80;;;4.00;99.90;;;;;;10196104;29;20208;-83
2023/01/08 01:20:36;;;;;;;36.13;21.80;;;4.00;99.90;;;;;;10182517;29;20443;-78
2023/01/08 01:25:57;;;;;;;33.90;20.60;;;4.00;99.90;;;;;;10195890;29;20241;-81
2023/01/08 01:31:19;;;;;;;46.60;29.70;;;4.00;99.90;;;;;;10195522;29;20232;-79
2023/01/08 01:36:41;;;;;;;43.10;24.30;;;4.10;99.90;;;;;;10197047;29;20213;-82
2023/01/08 01:42:02;;;;;;;39.43;23.43;;;4.20;99.90;;;;;;10203781;29;20209;-82
2023/01/08 01:47:28;;;;;;;42.20;24.87;;;4.10;99.90;;;;;;10190108;29;20398;-82
2023/01/08 01:53:24;;;;;;;40.20;25.23;;;4.30;99.90;;;;;;10190689;29;20215;-83
2023/01/08 01:58:46;;;;;;;49.17;27.73;;;4.30;99.90;;;;;;10189667;29;20242;-83
2023/01/08 02:04:11;;;;;;;43.40;26.33;;;4.40;99.90;;;;;;10203424;29;20451;-79
2023/01/08 02:09:41;;;;;;;49.00;28.33;;;4.40;99.90;;;;;;10189846;29;20407;-79
2023/01/08 02:15:31;;;;;;;47.13;28.80;;;4.40;99.90;;;;;;10216526;29;20237;-79
2023/01/08 02:20:57;;;;;;;52.73;29.00;;;4.40;99.90;;;;;;10224041;29;20225;-81
2023/01/08 02:26:31;;;;;;;55.10;29.73;;;4.40;99.90;;;;;;10215860;29;20236;-78
2023/01/08 02:31:54;;;;;;;52.77;29.93;;;4.40;99.90;;;;;;10202809;29;20215;-84
2023/01/08 02:37:15;;;;;;;56.00;32.40;;;4.50;99.90;;;;;;10201688;29;20453;-79
2023/01/08 02:43:01;;;;;;;55.33;31.33;;;4.40;99.90;;;;;;10188491;29;20217;-84
2023/01/08 02:48:50;;;;;;;54.20;31.10;;;4.50;99.90;;;;;;10174554;29;20229;-85
2023/01/08 02:54:17;;;;;;;52.17;29.37;;;4.50;99.90;;;;;;10187861;29;20212;-82
2023/01/08 02:59:41;;;;;;;56.57;31.53;;;4.50;99.90;;;;;;10200580;29;20277;-83
2023/01/08 03:05:24;;;;;;;57.27;31.17;;;4.50;99.90;;;;;;10200686;29;20237;-83
2023/01/08 03:10:50;;;;;;;64.73;33.00;;;4.50;99.90;;;;;;10200768;29;20205;-82
2023/01/08 03:16:45;;;;;;;65.50;32.60;;;4.60;99.90;;;;;;10200705;29;20227;-83
2023/01/08 03:22:10;;;;;;;56.03;32.33;;;4.60;99.90;;;;;;10130232;29;20294;-83
2023/01/08 03:27:36;;;;;;;61.30;32.83;;;4.60;99.90;;;;;;10128691;29;20247;-82
2023/01/08 03:32:59;;;;;;;60.27;31.57;;;4.70;99.90;;;;;;10142784;29;20222;-81
2023/01/08 03:38:25;;;;;;;61.97;34.37;;;4.60;99.90;;;;;;10142435;29;20247;-81
2023/01/08 03:43:46;;;;;;;60.47;31.70;;;4.60;99.90;;;;;;10131602;29;20377;-78
2023/01/08 03:49:10;;;;;;;59.13;31.63;;;4.60;99.90;;;;;;10142132;29;20314;-82
2023/01/08 03:54:34;;;;;;;53.53;29.47;;;4.60;99.90;;;;;;10129918;29;20217;-82
2023/01/08 03:59:55;;;;;;;52.47;29.40;;;4.60;99.90;;;;;;10197773;29;20237;-83
2023/01/08 04:05:16;;;;;;;52.33;29.93;;;4.60;99.90;;;;;;10185520;29;20216;-83
2023/01/08 04:10:37;;;;;;;57.10;30.87;;;4.60;99.90;;;;;;10185904;29;20499;-82
2023/01/08 04:15:59;;;;;;;56.20;30.43;;;4.60;99.90;;;;;;10196784;29;20216;-82
2023/01/08 04:21:20;;;;;;;49.40;27.63;;;4.60;99.90;;;;;;10201216;29;20236;-78
2023/01/08 04:26:43;;;;;;;49.90;27.70;;;4.60;99.90;;;;;;10198520;29;20238;-81
2023/01/08 04:32:04;;;;;;;41.33;24.83;;;4.60;99.90;;;;;;10161263;29;20236;-82
2023/01/08 04:37:25;;;;;;;48.97;28.97;;;4.60;99.90;;;;;;10160487;29;20229;-81
2023/01/08 04:42:46;;;;;;;53.00;29.47;;;4.60;99.90;;;;;;10173568;29;20273;-83
2023/01/08 04:48:08;;;;;;;53.07;29.77;;;4.50;99.90;;;;;;10173958;29;20217;-81
2023/01/08 04:53:32;;;;;;;55.50;31.77;;;4.50;99.90;;;;;;10170899;29;20507;-80
2023/01/08 04:58:54;;;;;;;59.10;31.03;;;4.50;99.90;;;;;;10172993;29;20237;-82
2023/01/08 05:04:15;;;;;;;52.97;29.43;;;4.50;99.90;;;;;;10157434;29;20203;-82
2023/01/08 05:09:36;;;;;;;58.20;30.83;;;4.50;99.90;;;;;;10157007;29;20209;-81
2023/01/08 05:14:57;;;;;;;61.00;30.67;;;4.50;99.90;;;;;;10159382;29;20213;-79
2023/01/08 05:20:19;;;;;;;63.40;31.67;;;4.50;99.90;;;;;;10159318;29;20551;-82
2023/01/08 05:25:41;;;;;;;69.37;34.30;;;4.50;99.90;;;;;;10156391;29;20471;-82
2023/01/08 05:31:02;;;;;;;67.93;34.17;;;4.50;99.90;;;;;;10179131;29;20204;-82
2023/01/08 05:36:23;;;;;;;71.73;34.07;;;4.50;99.90;;;;;;10211562;29;20470;-80
2023/01/08 05:41:45;;;;;;;74.57;34.90;;;4.50;99.90;;;;;;10196099;29;20199;-81
2023/01/08 05:47:06;;;;;;;65.40;32.97;;;4.50;99.90;;;;;;10195995;29;20218;-82
2023/01/08 05:52:28;;;;;;;69.53;35.63;;;4.60;99.90;;;;;;10195323;29;20441;-81
2023/01/08 05:57:49;;;;;;;61.77;33.23;;;4.60;99.90;;;;;;10208414;29;20522;-82
2023/01/08 06:03:10;;;;;;;60.17;32.13;;;4.60;99.90;;;;;;10181957;29;20228;-82
2023/01/08 06:08:32;;;;;;;60.70;32.70;;;4.60;99.90;;;;;;10195123;29;20205;-82
2023/01/08 06:13:53;;;;;;;68.33;34.17;;;4.60;99.90;;;;;;10197851;29;20272;-82
2023/01/08 06:19:14;;;;;;;66.40;35.40;;;4.60;99.90;;;;;;10181618;29;20307;-84
2023/01/08 06:24:35;;;;;;;61.93;34.00;;;4.60;99.90;;;;;;10184920;29;20241;-84
2023/01/08 06:29:56;;;;;;;57.10;33.50;;;4.70;99.90;;;;;;10217769;29;20219;-81
2023/01/08 06:35:17;;;;;;;59.07;32.23;;;4.70;99.90;;;;;;10202138;29;20550;-80
2023/01/08 06:40:38;;;;;;;62.97;35.70;;;4.70;99.90;;;;;;10201698;29;20224;-79
2023/01/08 06:46:00;;;;;;;63.13;35.70;;;4.70;99.90;;;;;;10188128;29;20205;-82
2023/01/08 06:51:21;;;;;;;57.10;33.87;;;4.60;99.90;;;;;;10203933;29;20202;-80
2023/01/08 06:56:42;;;;;;;57.83;31.43;;;4.60;99.90;;;;;;10201234;29;20209;-83
2023/01/08 07:02:14;;;;;;;68.93;36.80;;;4.60;99.90;;;;;;10216620;29;20204;-85
2023/01/08 07:07:35;;;;;;;59.00;33.83;;;4.60;99.90;;;;;;10187250;29;20253;-85
2023/01/08 07:12:57;;;;;;;63.83;35.10;;;4.60;99.90;;;;;;10216802;29;20203;-84
2023/01/08 07:18:18;;;;;;;59.77;35.93;;;4.60;99.90;;;;;;10193176;29;20233;-82
2023/01/08 07:23:40;;;;;;;62.77;36.23;;;4.60;99.90;;;;;;10220234;29;20177;-82
2023/01/08 07:29:02;;;;;;;61.77;36.27;;;4.60;99.90;;;;;;10189484;29;20232;-80
2023/01/08 07:34:23;;;;;;;70.60;40.30;;;4.50;99.90;;;;;;10198235;29;20209;-83
2023/01/08 07:39:44;;;;;;;80.20;44.10;;;4.50;99.90;;;;;;10202182;29;20260;-80
2023/01/08 07:45:07;;;;;;;74.17;41.40;;;4.50;99.90;;;;;;10199364;29;20456;-80
2023/01/08 07:50:28;;;;;;;70.23;41.73;;;4.50;99.90;;;;;;10199023;29;20198;-80
2023/01/08 07:55:49;;;;;;;79.43;44.73;;;4.50;99.90;;;;;;10185641;29;20508;-84
2023/01/08 08:01:11;;;;;;;69.00;40.97;;;4.50;99.90;;;;;;10185295;29;20248;-84
2023/01/08 08:06:32;;;;;;;67.10;40.20;;;4.50;99.90;;;;;;10198488;29;20213;-83
2023/01/08 08:11:53;;;;;;;69.60;40.93;;;4.50;99.90;;;;;;10185151;29;20210;-80
2023/01/08 08:17:15;;;;;;;90.80;52.70;;;4.40;99.90;;;;;;10198219;29;20209;-84
2023/01/08 08:22:36;;;;;;;72.33;41.77;;;4.40;99.90;;;;;;10198050;29;20288;-83
2023/01/08 08:27:59;;;;;;;70.07;41.53;;;4.40;99.90;;;;;;10197142;29;20258;-81
2023/01/08 08:33:20;;;;;;;88.97;49.43;;;4.40;99.90;;;;;;10197453;29;20198;-83
2023/01/08 08:38:41;;;;;;;75.80;42.53;;;4.40;99.90;;;;;;10184284;29;20224;-83
2023/01/08 08:44:03;;;;;;;86.20;50.83;;;4.40;99.90;;;;;;10210555;29;20189;-83
2023/01/08 08:49:24;;;;;;;79.83;45.67;;;4.40;99.90;;;;;;10199022;29;20498;-84
2023/01/08 08:54:45;;;;;;;73.03;41.83;;;4.40;99.90;;;;;;10186284;29;20209;-84
2023/01/08 09:00:07;;;;;;;69.83;43.20;;;4.40;99.90;;;;;;10196793;29;20239;-83
2023/01/08 09:05:29;;;;;;;70.93;41.37;;;4.40;99.90;;;;;;10183280;29;20547;-80
2023/01/08 09:10:50;;;;;;;84.83;49.63;;;4.40;99.90;;;;;;10197716;29;20279;-83
2023/01/08 09:16:11;;;;;;;68.07;40.13;;;4.30;99.90;;;;;;10194226;29;20260;-84
2023/01/08 09:21:33;;;;;;;73.97;44.30;;;4.30;99.90;;;;;;10201721;29;20443;-80
2023/01/08 09:26:54;;;;;;;90.13;50.23;;;4.30;99.90;;;;;;10199760;29;20603;-80
2023/01/08 09:32:15;;;;;;;67.97;40.40;;;4.40;99.90;;;;;;10156686;29;20200;-80
2023/01/08 09:37:36;;;;;;;76.73;42.17;;;4.40;99.90;;;;;;10156615;29;20229;-83
2023/01/08 09:43:00;;;;;;;83.97;45.33;;;4.30;99.90;;;;;;10156857;29;20205;-80
2023/01/08 09:48:26;;;;;;;72.50;41.97;;;4.30;99.90;;;;;;10155402;29;20216;-83
2023/01/08 09:54:13;;;;;;;73.73;40.63;;;4.40;99.90;;;;;;10162109;29;20201;-80
2023/01/08 09:59:34;;;;;;;69.27;39.60;;;4.40;99.90;;;;;;10185130;29;20346;-83
2023/01/08 10:04:58;;;;;;;71.33;39.77;;;4.40;99.90;;;;;;10164669;29;20209;-80
2023/01/08 10:10:24;;;;;;;73.50;40.33;;;4.40;99.90;;;;;;10164455;29;20201;-83
2023/01/08 10:15:46;;;;;;;80.93;45.10;;;4.40;99.90;;;;;;10149985;29;20563;-80
2023/01/08 10:21:13;;;;;;;66.17;38.10;;;4.40;99.90;;;;;;10163499;29;20225;-84
2023/01/08 10:26:36;;;;;;;69.97;39.63;;;4.30;99.90;;;;;;10150711;29;20559;-80
2023/01/08 10:32:03;;;;;;;76.53;43.90;;;4.30;99.90;;;;;;10215507;29;20235;-83
2023/01/08 10:37:41;;;;;;;67.63;38.80;;;4.30;99.90;;;;;;10188548;29;20398;-82
2023/01/08 10:43:14;;;;;;;63.57;36.77;;;4.20;99.90;;;;;;10201643;29;20440;-80
2023/01/08 10:48:39;;;;;;;63.93;38.87;;;4.20;99.90;;;;;;10188498;29;20284;-83
2023/01/08 10:54:14;;;;;;;66.50;37.43;;;4.30;99.90;;;;;;10201913;29;20248;-83
2023/01/08 10:59:35;;;;;;;69.43;38.90;;;4.30;99.90;;;;;;10187615;29;20246;-81
2023/01/08 11:04:58;;;;;;;65.60;34.67;;;4.10;99.90;;;;;;10190055;29;20211;-82
2023/01/08 11:10:23;;;;;;;63.80;35.50;;;4.20;99.90;;;;;;10200473;29;20450;-82
2023/01/08 11:15:44;;;;;;;64.23;33.60;;;4.10;99.90;;;;;;10203067;29;20533;-84
2023/01/08 11:21:18;;;;;;;63.60;36.20;;;4.10;99.90;;;;;;10200119;29;20253;-84
2023/01/08 11:26:42;;;;;;;64.80;34.37;;;4.20;99.90;;;;;;10186150;29;20554;-80
2023/01/08 11:32:36;;;;;;;68.03;35.03;;;4.20;99.90;;;;;;10173980;29;20213;-83
2023/01/08 11:38:00;;;;;;;75.83;36.97;;;4.10;99.90;;;;;;10161016;29;20217;-80
2023/01/08 11:43:48;;;;;;;71.70;36.87;;;4.20;99.90;;;;;;10160427;29;20514;-83
2023/01/08 11:49:21;;;;;;;64.10;36.33;;;4.20;99.90;;;;;;10160210;29;20514;-80
2023/01/08 11:54:45;;;;;;;64.30;35.70;;;4.20;99.90;;;;;;10161044;29;20204;-84
2023/01/08 12:00:28;;;;;;;71.70;36.03;;;4.20;99.90;;;;;;10173002;29;20245;-84
2023/01/08 12:06:19;;;;;;;63.80;35.00;;;4.30;99.90;;;;;;10161839;29;20198;-79
2023/01/08 12:11:52;;;;;;;66.40;36.73;;;4.20;99.90;;;;;;10161587;29;20455;-82
2023/01/08 12:17:34;;;;;;;73.10;37.93;;;4.30;99.90;;;;;;10174869;29;20280;-80
2023/01/08 12:23:05;;;;;;;67.03;36.33;;;4.20;99.90;;;;;;10158132;29;20212;-83
2023/01/08 12:28:58;;;;;;;67.73;36.83;;;4.30;99.90;;;;;;10194474;29;20247;-79
2023/01/08 12:34:26;;;;;;;67.57;35.97;;;4.30;99.90;;;;;;10215492;29;20220;-80
2023/01/08 12:40:13;;;;;;;74.77;38.13;;;4.20;99.90;;;;;;10194629;29;20312;-82
2023/01/08 12:45:40;;;;;;;72.50;39.83;;;4.20;99.90;;;;;;10179218;29;20204;-80
2023/01/08 12:51:07;;;;;;;79.17;46.00;;;4.20;99.90;;;;;;10179051;29;20407;-80
2023/01/08 13:02:58;;;;;;;70.77;39.27;;;4.40;99.90;;;;;;10169974;29;20538;-80
2023/01/08 13:08:34;;;;;;;74.80;42.33;;;4.40;99.90;;;;;;10157900;29;20245;-79
2023/01/08 13:14:05;;;;;;;96.03;50.03;;;4.30;99.90;;;;;;10143859;29;20208;-79
2023/01/08 13:19:30;;;;;;;75.27;41.97;;;4.40;99.90;;;;;;10159746;29;20233;-83
2023/01/08 13:24:51;;;;;;;106.07;53.53;;;4.40;99.90;;;;;;10144702;29;20276;-84
2023/01/08 13:30:41;;;;;;;89.47;49.57;;;4.40;99.90;;;;;;10143339;29;20236;-84
2023/01/08 13:36:12;;;;;;;80.03;46.57;;;4.40;99.90;;;;;;10156554;29;20217;-80
2023/01/08 13:41:43;;;;;;;63.57;35.17;;;4.50;99.90;;;;;;10156861;29;20296;-79
2023/01/08 13:47:16;;;;;;;111.83;59.67;;;4.50;99.90;;;;;;10156696;29;20334;-83
2023/01/08 13:52:46;;;;;;;89.37;49.27;;;4.50;99.90;;;;;;10158693;29;20376;-80
2023/01/08 13:58:22;;;;;;;81.67;44.23;;;4.50;99.90;;;;;;10157419;29;20558;-81
2023/01/08 14:03:46;;;;;;;62.27;35.33;;;4.50;99.90;;;;;;10118097;29;20206;-84
2023/01/08 14:09:22;;;;;;;69.20;38.77;;;4.50;99.90;;;;;;10118235;29;20294;-80
2023/01/08 14:14:57;;;;;;;99.77;52.17;;;4.50;99.90;;;;;;10119173;29;20209;-83
2023/01/08 14:20:37;;;;;;;78.27;42.20;;;4.50;99.90;;;;;;10144948;29;20281;-84
2023/01/08 14:26:05;;;;;;;86.70;46.17;;;4.60;99.90;;;;;;10117231;29;20234;-84
2023/01/08 14:31:27;;;;;;;102.40;44.77;;;4.50;99.90;;;;;;10142474;29;20198;-80
2023/01/08 14:36:52;;;;;;;98.63;45.07;;;4.60;99.90;;;;;;10155262;29;20375;-80
2023/01/08 14:42:45;;;;;;;115.80;49.57;;;4.60;99.90;;;;;;10142358;29;20229;-80
2023/01/08 14:48:20;;;;;;;98.70;49.63;;;4.60;99.90;;;;;;10164379;29;20435;-80
2023/01/08 14:53:49;;;;;;;120.47;60.00;;;4.70;99.90;;;;;;10178148;29;20506;-80
2023/01/08 14:59:11;;;;;;;101.00;53.77;;;4.60;99.90;;;;;;10165786;29;20501;-83
2023/01/08 15:04:32;;;;;;;88.87;51.90;;;4.70;99.90;;;;;;10162155;29;20231;-82
2023/01/08 15:09:58;;;;;;;80.83;46.03;;;4.70;99.90;;;;;;10138684;29;20423;-80
2023/01/08 15:15:23;;;;;;;79.93;42.43;;;4.80;99.90;;;;;;10161671;29;20206;-80
2023/01/08 15:20:45;;;;;;;83.27;50.03;;;4.80;99.90;;;;;;10161612;29;20228;-83
2023/01/08 15:26:13;;;;;;;79.60;45.27;;;4.80;99.90;;;;;;10148199;29;20254;-81
2023/01/08 15:31:34;;;;;;;71.37;42.57;;;4.80;99.90;;;;;;10145351;29;20210;-80
2023/01/08 15:36:55;;;;;;;74.67;43.63;;;4.80;99.90;;;;;;10160975;29;20246;-80
2023/01/08 15:48:10;;;;;;;66.67;43.07;;;4.80;99.90;;;;;;10160464;29;20251;-84
2023/01/08 15:53:32;;;;;;;72.90;43.77;;;4.90;99.90;;;;;;10147292;29;20214;-81
2023/01/08 15:58:53;;;;;;;83.73;50.97;;;4.90;99.90;;;;;;10160202;29;20255;-84
2023/01/08 16:04:14;;;;;;;73.90;46.77;;;4.90;99.90;;;;;;10160027;29;20198;-79
2023/01/08 16:09:35;;;;;;;72.67;46.13;;;5.00;99.90;;;;;;10146696;29;20215;-82
2023/01/08 16:14:56;;;;;;;65.83;40.33;;;5.00;99.90;;;;;;10159391;29;20219;-80
2023/01/08 16:20:18;;;;;;;61.87;37.57;;;4.90;99.90;;;;;;10160240;29;20450;-82
2023/01/08 16:25:39;;;;;;;59.97;37.87;;;4.90;99.90;;;;;;10159209;29;20242;-83
2023/01/08 16:31:01;;;;;;;64.70;39.07;;;5.00;99.90;;;;;;10159017;29;20209;-84
2023/01/08 16:36:23;;;;;;;64.93;39.60;;;5.00;99.90;;;;;;10158660;29;20207;-80
2023/01/08 16:41:46;;;;;;;66.03;41.90;;;5.00;99.90;;;;;;10158796;29;20588;-84
2023/01/08 16:47:07;;;;;;;94.27;55.53;;;5.00;99.90;;;;;;10144918;29;20400;-83
2023/01/08 16:52:28;;;;;;;69.77;42.93;;;5.00;99.90;;;;;;10146678;29;20198;-80
2023/01/08 16:57:50;;;;;;;70.93;43.67;;;5.10;99.90;;;;;;10146618;29;20245;-79
2023/01/08 17:03:14;;;;;;;98.70;53.57;;;5.10;99.90;;;;;;10146081;29;20210;-81
2023/01/08 17:08:42;;;;;;;77.37;45.43;;;5.10;99.90;;;;;;10158314;29;20515;-83
2023/01/08 17:14:03;;;;;;;78.40;43.37;;;5.10;99.90;;;;;;10172068;29;20488;-79
2023/01/08 17:19:24;;;;;;;72.23;43.57;;;5.20;99.90;;;;;;10172409;29;20252;-78
2023/01/08 17:24:45;;;;;;;89.67;51.10;;;5.20;99.90;;;;;;10159225;29;20369;-81
2023/01/08 17:30:11;;;;;;;86.37;47.37;;;5.20;99.90;;;;;;10160607;29;20229;-80
2023/01/08 17:35:32;;;;;;;72.23;45.03;;;5.30;99.90;;;;;;10157687;29;20216;-80
2023/01/08 17:40:53;;;;;;;74.53;43.03;;;5.30;99.90;;;;;;10161708;29;20252;-83
2023/01/08 17:46:16;;;;;;;78.93;48.20;;;5.30;99.90;;;;;;10157554;29;20272;-84
2023/01/08 17:51:40;;;;;;;64.60;39.10;;;5.20;99.90;;;;;;10164148;29;20202;-80
2023/01/08 17:57:01;;;;;;;63.47;39.43;;;5.20;99.90;;;;;;10143501;29;20202;-80
2023/01/08 18:02:23;;;;;;;71.33;41.47;;;5.20;99.90;;;;;;10143589;29;20231;-80
2023/01/08 18:07:44;;;;;;;72.43;41.20;;;5.20;99.90;;;;;;10144046;29;20205;-83
2023/01/08 18:13:05;;;;;;;85.23;46.17;;;5.20;99.90;;;;;;10156127;29;20254;-84
2023/01/08 18:18:27;;;;;;;78.23;43.60;;;5.20;99.90;;;;;;10156291;29;20202;-80
2023/01/08 18:23:48;;;;;;;58.60;36.07;;;5.30;99.90;;;;;;10177150;29;20292;-84
2023/01/08 18:29:09;;;;;;;74.50;41.93;;;5.30;99.90;;;;;;10163246;29;20280;-84
2023/01/08 18:34:31;;;;;;;73.97;42.93;;;5.30;99.90;;;;;;10138441;29;20201;-84
2023/01/08 18:39:52;;;;;;;82.33;46.40;;;5.40;99.90;;;;;;10162985;29;20235;-84
2023/01/08 18:45:14;;;;;;;70.50;41.80;;;5.30;99.90;;;;;;10163502;29;20395;-80
2023/01/08 18:50:39;;;;;;;67.37;40.53;;;5.40;99.90;;;;;;10149613;29;20213;-80
2023/01/08 18:56:00;;;;;;;64.63;39.43;;;5.30;99.90;;;;;;10149349;29;20510;-84
2023/01/08 19:01:22;;;;;;;77.87;41.67;;;5.40;99.90;;;;;;10169090;29;20241;-81
2023/01/08 19:06:44;;;;;;;88.30;45.97;;;5.30;99.90;;;;;;10166824;29;20214;-84
2023/01/08 19:12:06;;;;;;;84.07;44.63;;;5.40;99.90;;;;;;10163359;29;20234;-81
2023/01/08 19:17:30;;;;;;;77.03;42.87;;;5.40;99.90;;;;;;10148333;29;20277;-85
2023/01/08 19:22:51;;;;;;;69.50;39.70;;;5.30;99.90;;;;;;10138136;29;20234;-82
2023/01/08 19:28:13;;;;;;;72.00;42.30;;;5.40;99.90;;;;;;10138332;29;20461;-80
2023/01/08 19:33:34;;;;;;;71.33;40.97;;;5.40;99.90;;;;;;10160916;29;20219;-83
2023/01/08 19:38:56;;;;;;;71.83;40.57;;;5.40;99.90;;;;;;10147846;29;20295;-84
2023/01/08 19:44:17;;;;;;;72.60;41.73;;;5.40;99.90;;;;;;10160737;29;20239;-81
2023/01/08 19:49:40;;;;;;;65.97;38.80;;;5.40;99.90;;;;;;10148292;29;20212;-82
2023/01/08 19:55:01;;;;;;;80.13;45.10;;;5.40;99.90;;;;;;10146939;29;20203;-81
2023/01/08 20:00:22;;;;;;;73.60;42.90;;;5.40;99.90;;;;;;10160622;29;20313;-78
2023/01/08 20:05:44;;;;;;;60.07;38.30;;;5.40;99.90;;;;;;10147682;29;20232;-82
2023/01/08 20:11:07;;;;;;;59.03;35.23;;;5.50;99.90;;;;;;10145704;29;20259;-81
2023/01/08 20:16:29;;;;;;;76.00;45.67;;;5.50;99.90;;;;;;10159356;29;20207;-82
2023/01/08 20:21:50;;;;;;;62.77;40.63;;;5.50;99.90;;;;;;10159133;29;20224;-79
2023/01/08 20:27:11;;;;;;;72.73;40.90;;;5.50;99.90;;;;;;10159448;29;20243;-81
2023/01/08 20:32:33;;;;;;;56.77;35.00;;;5.40;99.90;;;;;;10158305;29;20445;-82
2023/01/08 20:37:54;;;;;;;58.27;34.67;;;5.50;99.90;;;;;;10158247;29;20209;-79
2023/01/08 20:43:15;;;;;;;61.03;36.40;;;5.50;99.90;;;;;;10157317;29;20285;-80
2023/01/08 20:48:36;;;;;;;65.47;40.63;;;5.40;99.90;;;;;;10144725;29;20250;-81
2023/01/08 20:54:10;;;;;;;62.33;37.73;;;5.40;99.90;;;;;;10158815;29;20205;-79
2023/01/08 20:59:31;;;;;;;63.93;39.07;;;5.40;99.90;;;;;;10157041;29;20297;-81
2023/01/08 21:04:53;;;;;;;64.03;38.00;;;5.40;99.90;;;;;;10157227;29;20269;-79
2023/01/08 21:10:15;;;;;;;55.67;36.93;;;5.40;99.90;;;;;;10157040;29;20225;-78
2023/01/08 21:15:36;;;;;;;53.67;34.67;;;5.40;99.90;;;;;;10170505;29;20207;-80
2023/01/08 21:21:02;;;;;;;62.43;40.33;;;5.30;99.90;;;;;;10143593;29;20234;-81
2023/01/08 21:26:23;;;;;;;55.00;35.13;;;5.40;99.90;;;;;;10144113;29;20213;-81
2023/01/08 21:31:45;;;;;;;57.97;37.13;;;5.40;99.90;;;;;;10145058;29;20426;-82
2023/01/08 21:37:07;;;;;;;54.20;35.03;;;5.30;99.90;;;;;;10158890;29;20329;-83
2023/01/08 21:48:08;;;;;;;63.00;37.73;;;5.30;99.90;;;;;;10156193;29;20239;-81
2023/01/08 21:53:32;;;;;;;57.73;36.10;;;5.20;99.90;;;;;;10156824;29;20250;-81
2023/01/08 21:58:56;;;;;;;58.33;34.70;;;5.30;99.90;;;;;;10177485;29;20532;-82
2023/01/08 22:04:17;;;;;;;69.40;39.10;;;5.30;99.90;;;;;;10166468;29;20285;-81
2023/01/08 22:09:38;;;;;;;67.03;39.80;;;5.30;99.90;;;;;;10166350;29;20403;-78
2023/01/08 22:14:59;;;;;;;60.57;37.53;;;5.20;99.90;;;;;;10163732;29;20198;-79
2023/01/08 22:20:20;;;;;;;64.27;39.90;;;5.20;99.90;;;;;;10178981;29;20264;-82
2023/01/08 22:25:42;;;;;;;71.53;40.87;;;5.20;99.90;;;;;;10163456;29;20194;-79
2023/01/08 22:31:08;;;;;;;61.03;38.23;;;5.20;99.90;;;;;;10165469;29;20214;-83
2023/01/08 22:36:29;;;;;;;57.23;35.43;;;5.20;99.90;;;;;;10149706;29;20213;-84
2023/01/08 22:41:50;;;;;;;62.83;39.10;;;5.20;99.90;;;;;;10149953;29;20286;-82
2023/01/08 22:47:12;;;;;;;83.00;49.00;;;5.20;99.90;;;;;;10150817;29;20205;-79
2023/01/08 22:52:33;;;;;;;66.23;40.17;;;5.20;99.90;;;;;;10162367;29;20190;-81
2023/01/08 22:57:54;;;;;;;62.43;38.50;;;5.20;99.90;;;;;;10168570;29;20242;-82
2023/01/08 23:03:15;;;;;;;64.47;39.53;;;5.20;99.90;;;;;;10162220;29;20549;-81
2023/01/08 23:08:39;;;;;;;60.80;38.00;;;5.20;99.90;;;;;;10162115;29;20213;-81
2023/01/08 23:14:00;;;;;;;64.10;38.30;;;5.30;99.90;;;;;;10173212;29;20211;-80
2023/01/08 23:19:21;;;;;;;68.53;38.13;;;5.20;99.90;;;;;;10140541;29;20218;-82
2023/01/08 23:24:43;;;;;;;67.93;39.27;;;5.20;99.90;;;;;;10161087;29;20216;-80
2023/01/08 23:30:05;;;;;;;74.07;43.27;;;5.20;99.90;;;;;;10160863;29;20210;-82
2023/01/08 23:35:26;;;;;;;86.33;45.37;;;5.10;99.90;;;;;;10161010;29;20202;-78
2023/01/08 23:40:47;;;;;;;71.73;42.00;;;5.10;99.90;;;;;;10160952;29;20534;-81
2023/01/08 23:46:08;;;;;;;70.63;40.20;;;5.10;99.90;;;;;;10147039;29;20273;-81
2023/01/08 23:51:29;;;;;;;75.17;42.03;;;5.10;99.90;;;;;;10147040;29;20214;-78
2023/01/08 23:56:52;;;;;;;73.07;41.50;;;5.00;99.90;;;;;;10146690;29;20231;-80
